Time;durP1;ratioP1;P1;durP2;ratioP2;P2;SDS_P1;SDS_P2;PMS_P1;PMS_P2;Temp;Humidity;BMP_temperature;BMP_pressure;BME280_temperature;BME280_humidity;BME280_pressure;Samples;Min_cycle;Max_cycle;Signal;HPM_P1;HPM_P2
2023/02/25 00:00:42;;;;;;;12.77;11.98;;;;;;;;;;4995068;28;20068;-58
2023/02/25 00:03:09;;;;;;;12.65;11.95;;;;;;;;;;4998271;28;20045;-58
2023/02/25 00:05:37;;;;;;;12.52;11.80;;;;;;;;;;4992190;28;20121;-58
2023/02/25 00:08:03;;;;;;;13.60;12.80;;;;;;;;;;4994174;28;20208;-58
2023/02/25 00:10:28;;;;;;;14.43;13.63;;;;;;;;;;4995689;28;20807;-57
2023/02/25 00:12:54;;;;;;;12.68;11.98;;;;;;;;;;4991718;28;20113;-58
2023/02/25 00:15:19;;;;;;;14.15;13.05;;;;;;;;;;4991577;28;20130;-58
2023/02/25 00:17:45;;;;;;;13.20;12.35;;;;;;;;;;4993891;28;20030;-58
2023/02/25 00:20:12;;;;;;;14.35;13.55;;;;;;;;;;4998359;28;20471;-58
2023/02/25 00:22:38;;;;;;;13.45;12.65;;;;;;;;;;4995561;28;20574;-57
2023/02/25 00:25:03;;;;;;;13.18;12.38;;;;;;;;;;4994280;28;20030;-58
2023/02/25 00:27:29;;;;;;;13.43;12.55;;;;;;;;;;4991379;28;20148;-57
2023/02/25 00:29:55;;;;;;;13.63;12.82;;;;;;;;;;4991042;28;20042;-58
2023/02/25 00:32:21;;;;;;;13.90;13.10;;;;;;;;;;4993695;28;20050;-58
2023/02/25 00:34:47;;;;;;;13.65;12.85;;;;;;;;;;4995832;28;20038;-58
2023/02/25 00:37:13;;;;;;;13.90;13.10;;;;;;;;;;4993482;28;20113;-57
2023/02/25 00:39:42;;;;;;;13.63;12.82;;;;;;;;;;4993952;28;20065;-57
2023/02/25 00:42:13;;;;;;;14.13;13.32;;;;;;;;;;4993828;28;20045;-57
2023/02/25 00:44:38;;;;;;;13.80;13.00;;;;;;;;;;4990292;28;20038;-58
2023/02/25 00:47:04;;;;;;;12.13;11.43;;;;;;;;;;4997762;28;20034;-58
2023/02/25 00:49:30;;;;;;;13.07;12.27;;;;;;;;;;4997420;28;20497;-58
2023/02/25 00:51:56;;;;;;;12.38;11.57;;;;;;;;;;4996072;28;20049;-58
2023/02/25 00:54:21;;;;;;;13.45;12.48;;;;;;;;;;4989815;28;20045;-58
2023/02/25 00:56:47;;;;;;;12.13;11.43;;;;;;;;;;4998040;28;20042;-58
2023/02/25 00:59:12;;;;;;;11.43;10.73;;;;;;;;;;4995887;28;20356;-58
2023/02/25 01:01:38;;;;;;;13.90;12.93;;;;;;;;;;4997995;28;20367;-58
2023/02/25 01:04:04;;;;;;;12.43;11.73;;;;;;;;;;4997627;28;20350;-58
2023/02/25 01:06:31;;;;;;;12.55;11.82;;;;;;;;;;4995810;28;20711;-58
2023/02/25 01:08:57;;;;;;;12.48;11.77;;;;;;;;;;4997423;28;20046;-57
2023/02/25 01:11:29;;;;;;;12.45;11.75;;;;;;;;;;4999527;28;20340;-58
2023/02/25 01:13:56;;;;;;;13.77;12.98;;;;;;;;;;4997059;28;20615;-57
2023/02/25 01:16:23;;;;;;;11.68;10.98;;;;;;;;;;4995454;28;20108;-58
2023/02/25 01:18:54;;;;;;;12.68;11.95;;;;;;;;;;4994270;28;20061;-58
2023/02/25 01:21:43;;;;;;;11.75;11.05;;;;;;;;;;4997904;28;20157;-58
2023/02/25 01:24:19;;;;;;;11.63;10.93;;;;;;;;;;4998530;28;20053;-58
2023/02/25 01:26:46;;;;;;;12.82;11.93;;;;;;;;;;4997916;28;20457;-58
2023/02/25 01:29:17;;;;;;;11.85;11.15;;;;;;;;;;4998352;28;20580;-58
2023/02/25 01:31:44;;;;;;;14.18;13.18;;;;;;;;;;4996549;28;20064;-58
2023/02/25 01:34:13;;;;;;;12.10;11.40;;;;;;;;;;4998895;28;20098;-57
2023/02/25 01:36:38;;;;;;;12.85;12.13;;;;;;;;;;4998239;28;20117;-58
2023/02/25 01:39:04;;;;;;;11.90;11.20;;;;;;;;;;4998460;28;20121;-58
2023/02/25 01:41:32;;;;;;;12.60;11.90;;;;;;;;;;4994414;28;20046;-58
2023/02/25 01:44:19;;;;;;;13.00;12.20;;;;;;;;;;4997589;28;20048;-57
2023/02/25 01:46:47;;;;;;;13.18;12.35;;;;;;;;;;4996690;28;20494;-58
2023/02/25 01:49:22;;;;;;;12.30;11.60;;;;;;;;;;4997805;28;20050;-58
2023/02/25 01:51:53;;;;;;;17.10;13.50;;;;;;;;;;4997469;28;20326;-57
2023/02/25 01:54:19;;;;;;;12.23;11.52;;;;;;;;;;4994208;28;20030;-58
2023/02/25 01:56:49;;;;;;;13.80;12.98;;;;;;;;;;4994807;28;20057;-58
2023/02/25 01:59:17;;;;;;;13.68;12.77;;;;;;;;;;4995056;28;20062;-58
2023/02/25 02:01:42;;;;;;;13.55;12.75;;;;;;;;;;4996890;28;20038;-58
2023/02/25 02:04:10;;;;;;;13.55;12.75;;;;;;;;;;4996648;28;20036;-58
2023/02/25 02:06:39;;;;;;;12.90;12.10;;;;;;;;;;4994657;28;20497;-57
2023/02/25 02:09:10;;;;;;;12.85;12.13;;;;;;;;;;4996489;28;20038;-58
2023/02/25 02:11:36;;;;;;;13.70;12.65;;;;;;;;;;4995774;28;20038;-57
2023/02/25 02:14:04;;;;;;;13.52;12.73;;;;;;;;;;4995382;28;20472;-58
2023/02/25 02:16:57;;;;;;;13.88;13.07;;;;;;;;;;4997853;28;20116;-57
2023/02/25 02:19:42;;;;;;;12.23;11.52;;;;;;;;;;4995254;28;20133;-57
2023/02/25 02:22:15;;;;;;;14.30;13.13;;;;;;;;;;4996546;28;20104;-57
2023/02/25 02:25:01;;;;;;;13.00;12.20;;;;;;;;;;4996683;28;20074;-58
2023/02/25 02:28:00;;;;;;;12.68;11.98;;;;;;;;;;4995539;28;20135;-57
2023/02/25 02:30:52;;;;;;;13.93;13.13;;;;;;;;;;4992931;28;20057;-57
2023/02/25 02:33:23;;;;;;;13.52;12.73;;;;;;;;;;4998653;28;20076;-57
2023/02/25 02:35:59;;;;;;;12.38;11.68;;;;;;;;;;4995376;28;20093;-58
2023/02/25 02:38:48;;;;;;;12.50;11.80;;;;;;;;;;4995099;28;20145;-58
2023/02/25 02:41:21;;;;;;;14.32;13.23;;;;;;;;;;4995438;28;20476;-57
2023/02/25 02:43:55;;;;;;;13.55;12.73;;;;;;;;;;4996954;28;20076;-57
2023/02/25 02:46:24;;;;;;;13.75;12.95;;;;;;;;;;4995428;28;20140;-57
2023/02/25 02:48:49;;;;;;;13.50;12.60;;;;;;;;;;4993250;28;20038;-57
2023/02/25 02:51:21;;;;;;;13.35;12.55;;;;;;;;;;4994684;28;20100;-57
2023/02/25 02:53:52;;;;;;;13.02;12.13;;;;;;;;;;4997522;28;20125;-57
2023/02/25 02:56:19;;;;;;;;;;;;;;;;;;4994575;28;20356;-57
2023/02/25 02:58:51;;;;;;;12.63;11.82;;;;;;;;;;4996823;28;19975;-57
2023/02/25 03:01:23;;;;;;;12.50;11.60;;;;;;;;;;4994149;28;20045;-58
2023/02/25 03:03:58;;;;;;;;;;;;;;;;;;4996012;28;20030;-57
2023/02/25 03:06:30;;;;;;;12.70;12.00;;;;;;;;;;4994725;28;20296;-58
2023/02/25 03:09:01;;;;;;;13.05;12.25;;;;;;;;;;4996266;28;20057;-57
2023/02/25 03:11:27;;;;;;;13.48;12.68;;;;;;;;;;4994023;28;20042;-58
2023/02/25 03:13:53;;;;;;;13.15;12.10;;;;;;;;;;4991816;28;20034;-57
2023/02/25 03:16:25;;;;;;;14.20;13.30;;;;;;;;;;4994563;28;20045;-58
2023/02/25 03:18:58;;;;;;;15.75;14.70;;;;;;;;;;4995920;28;20625;-57
2023/02/25 03:21:30;;;;;;;13.77;12.77;;;;;;;;;;4994918;28;20075;-57
2023/02/25 03:23:58;;;;;;;13.20;12.40;;;;;;;;;;4991407;28;20048;-57
2023/02/25 03:26:28;;;;;;;12.80;12.10;;;;;;;;;;4994711;28;20137;-57
2023/02/25 03:28:55;;;;;;;12.73;11.93;;;;;;;;;;4998569;28;20062;-57
2023/02/25 03:31:30;;;;;;;13.65;12.85;;;;;;;;;;4993475;28;20125;-57
2023/02/25 03:34:02;;;;;;;13.63;12.82;;;;;;;;;;4991175;28;20042;-57
2023/02/25 03:36:32;;;;;;;14.45;13.57;;;;;;;;;;4992061;28;20376;-59
2023/02/25 03:39:07;;;;;;;13.87;13.07;;;;;;;;;;4997141;28;20042;-58
2023/02/25 03:41:37;;;;;;;12.15;11.45;;;;;;;;;;4993114;28;20408;-58
2023/02/25 03:44:11;;;;;;;14.05;13.18;;;;;;;;;;4993680;28;20034;-58
2023/02/25 03:46:38;;;;;;;14.77;13.98;;;;;;;;;;4991423;28;20397;-59
2023/02/25 03:49:06;;;;;;;12.88;12.10;;;;;;;;;;4996717;28;20061;-58
2023/02/25 03:51:39;;;;;;;12.88;12.15;;;;;;;;;;4992429;28;20030;-58
2023/02/25 03:54:06;;;;;;;13.35;12.32;;;;;;;;;;4993901;28;20034;-58
2023/02/25 03:56:43;;;;;;;14.10;13.20;;;;;;;;;;4993533;28;20025;-59
2023/02/25 03:59:09;;;;;;;13.13;12.32;;;;;;;;;;4992650;28;20480;-59
2023/02/25 04:01:34;;;;;;;12.63;11.90;;;;;;;;;;4994063;28;20137;-58
2023/02/25 04:04:00;;;;;;;15.05;14.05;;;;;;;;;;4992096;28;20038;-58
2023/02/25 04:06:25;;;;;;;14.60;13.60;;;;;;;;;;4993029;28;20099;-58
2023/02/25 04:08:50;;;;;;;12.88;12.02;;;;;;;;;;4995661;28;20288;-58
2023/02/25 04:11:16;;;;;;;13.25;12.45;;;;;;;;;;4994315;28;20053;-58
2023/02/25 04:13:41;;;;;;;11.52;10.82;;;;;;;;;;4981007;28;20030;-58
2023/02/25 04:16:09;;;;;;;12.02;11.32;;;;;;;;;;4993826;28;20389;-59
2023/02/25 04:18:35;;;;;;;13.15;12.35;;;;;;;;;;4993474;28;20121;-59
2023/02/25 04:21:00;;;;;;;11.52;10.82;;;;;;;;;;4992713;28;20180;-59
2023/02/25 04:23:26;;;;;;;12.98;12.18;;;;;;;;;;4992725;28;20038;-58
2023/02/25 04:25:51;;;;;;;11.50;10.80;;;;;;;;;;5009058;28;20096;-59
2023/02/25 04:28:16;;;;;;;13.50;12.70;;;;;;;;;;4977066;28;20046;-58
2023/02/25 04:30:42;;;;;;;11.98;11.27;;;;;;;;;;4997544;28;20088;-58
2023/02/25 04:33:10;;;;;;;12.65;11.85;;;;;;;;;;4997398;28;20041;-59
2023/02/25 04:35:36;;;;;;;11.95;11.18;;;;;;;;;;4990699;28;20038;-57
2023/02/25 04:38:01;;;;;;;13.30;12.48;;;;;;;;;;4996133;28;20045;-58
2023/02/25 04:40:27;;;;;;;12.73;11.93;;;;;;;;;;4990981;28;20039;-58
2023/02/25 04:42:52;;;;;;;12.48;11.70;;;;;;;;;;4993880;28;20467;-58
2023/02/25 04:45:19;;;;;;;11.88;11.18;;;;;;;;;;4991974;28;20058;-58
2023/02/25 04:47:44;;;;;;;12.88;11.48;;;;;;;;;;4992948;28;20045;-58
2023/02/25 04:50:10;;;;;;;12.52;11.80;;;;;;;;;;4993969;28;20038;-58
2023/02/25 04:52:36;;;;;;;11.90;11.20;;;;;;;;;;4992286;28;20121;-58
2023/02/25 04:55:01;;;;;;;12.10;11.40;;;;;;;;;;4994351;28;20034;-58
2023/02/25 04:57:27;;;;;;;11.95;11.25;;;;;;;;;;4992692;28;20049;-59
2023/02/25 04:59:52;;;;;;;12.98;12.18;;;;;;;;;;4995050;28;20885;-59
2023/02/25 05:02:18;;;;;;;12.05;11.32;;;;;;;;;;4993150;28;20057;-59
2023/02/25 05:04:43;;;;;;;11.35;10.65;;;;;;;;;;4996069;28;20033;-60
2023/02/25 05:07:09;;;;;;;13.23;12.30;;;;;;;;;;4991152;28;20484;-58
2023/02/25 05:09:34;;;;;;;11.40;10.70;;;;;;;;;;4994536;28;20367;-58
2023/02/25 05:12:01;;;;;;;11.85;11.05;;;;;;;;;;4993790;28;20040;-57
2023/02/25 05:14:26;;;;;;;12.50;11.60;;;;;;;;;;4992026;28;20086;-58
2023/02/25 05:16:52;;;;;;;12.52;11.80;;;;;;;;;;4993214;28;20436;-58
2023/02/25 05:19:21;;;;;;;12.90;11.88;;;;;;;;;;4993005;28;20038;-58
2023/02/25 05:21:50;;;;;;;12.40;11.57;;;;;;;;;;4991887;28;20178;-58
2023/02/25 05:24:15;;;;;;;11.05;10.35;;;;;;;;;;4996160;28;20037;-58
2023/02/25 05:26:41;;;;;;;11.27;10.57;;;;;;;;;;4996342;28;20041;-58
2023/02/25 05:29:07;;;;;;;11.00;10.30;;;;;;;;;;4995319;28;20491;-58
2023/02/25 05:31:32;;;;;;;11.93;11.23;;;;;;;;;;4995323;28;20627;-57
2023/02/25 05:33:58;;;;;;;12.45;11.63;;;;;;;;;;5000021;28;20099;-59
2023/02/25 05:36:23;;;;;;;12.80;11.80;;;;;;;;;;4996138;28;20046;-59
2023/02/25 05:38:52;;;;;;;12.07;11.38;;;;;;;;;;4997575;28;20030;-59
2023/02/25 05:41:17;;;;;;;12.82;11.95;;;;;;;;;;4995422;28;20554;-59
2023/02/25 05:43:44;;;;;;;11.35;10.57;;;;;;;;;;4996723;28;20038;-58
2023/02/25 05:46:12;;;;;;;11.27;10.57;;;;;;;;;;4997338;28;20103;-58
2023/02/25 05:48:39;;;;;;;10.20;9.60;;;;;;;;;;4996849;28;20107;-58
2023/02/25 05:51:12;;;;;;;11.63;10.93;;;;;;;;;;4995083;28;20038;-58
2023/02/25 05:53:38;;;;;;;11.27;10.57;;;;;;;;;;4995294;28;20157;-58
2023/02/25 05:56:08;;;;;;;10.77;10.07;;;;;;;;;;4993091;28;20133;-59
2023/02/25 05:58:34;;;;;;;10.43;9.80;;;;;;;;;;4995378;28;20038;-59
2023/02/25 06:00:59;;;;;;;11.25;10.55;;;;;;;;;;4986788;28;20517;-58
2023/02/25 06:03:25;;;;;;;11.20;10.50;;;;;;;;;;4997055;28;20034;-59
2023/02/25 06:05:52;;;;;;;10.30;9.70;;;;;;;;;;4993809;28;20403;-58
2023/02/25 06:08:17;;;;;;;11.85;11.15;;;;;;;;;;4995556;28;20039;-58
2023/02/25 06:10:43;;;;;;;10.43;9.80;;;;;;;;;;4995375;28;20045;-58
2023/02/25 06:13:10;;;;;;;11.57;10.88;;;;;;;;;;4994591;28;20049;-59
2023/02/25 06:15:40;;;;;;;11.60;10.90;;;;;;;;;;4994928;28;20529;-57
2023/02/25 06:18:06;;;;;;;13.52;12.25;;;;;;;;;;4994703;28;20121;-58
2023/02/25 06:20:34;;;;;;;12.85;11.77;;;;;;;;;;4993645;28;20101;-58
2023/02/25 06:23:00;;;;;;;11.40;10.70;;;;;;;;;;4998822;28;20368;-58
2023/02/25 06:25:28;;;;;;;10.90;10.20;;;;;;;;;;4994751;28;20756;-58
2023/02/25 06:27:58;;;;;;;14.75;11.50;;;;;;;;;;4994396;28;20040;-58
2023/02/25 06:30:24;;;;;;;11.88;10.98;;;;;;;;;;5002300;28;20115;-58
2023/02/25 06:32:49;;;;;;;12.32;11.45;;;;;;;;;;4994419;28;20727;-58
2023/02/25 06:35:15;;;;;;;10.93;10.25;;;;;;;;;;4994214;28;20022;-58
2023/02/25 06:37:40;;;;;;;11.18;10.48;;;;;;;;;;4993061;28;20099;-58
2023/02/25 06:40:11;;;;;;;17.10;12.75;;;;;;;;;;4992239;28;20034;-58
2023/02/25 06:42:37;;;;;;;11.60;10.90;;;;;;;;;;4990568;28;20030;-58
2023/02/25 06:45:03;;;;;;;11.73;11.02;;;;;;;;;;4995973;28;20110;-59
2023/02/25 06:47:28;;;;;;;10.57;9.93;;;;;;;;;;4993971;28;20490;-58
2023/02/25 06:49:53;;;;;;;12.00;11.00;;;;;;;;;;4996225;28;20026;-58
2023/02/25 06:52:19;;;;;;;10.65;10.00;;;;;;;;;;4996299;28;20809;-58
2023/02/25 06:54:44;;;;;;;11.25;10.55;;;;;;;;;;4995751;28;20342;-59
2023/02/25 06:57:09;;;;;;;9.88;9.27;;;;;;;;;;4997090;28;20354;-58
2023/02/25 06:59:35;;;;;;;10.02;9.43;;;;;;;;;;4993754;28;20482;-58
2023/02/25 07:02:00;;;;;;;10.68;10.05;;;;;;;;;;4994588;28;20042;-58
2023/02/25 07:04:26;;;;;;;10.77;10.07;;;;;;;;;;4988412;28;20118;-57
2023/02/25 07:06:51;;;;;;;13.57;12.57;;;;;;;;;;4974425;28;20369;-58
2023/02/25 07:09:17;;;;;;;12.57;11.30;;;;;;;;;;4997125;28;20041;-56
2023/02/25 07:11:42;;;;;;;10.15;9.52;;;;;;;;;;4994969;28;20041;-58
2023/02/25 07:14:07;;;;;;;11.35;10.55;;;;;;;;;;4994733;28;20611;-57
2023/02/25 07:16:33;;;;;;;11.32;10.52;;;;;;;;;;4994223;28;20467;-58
2023/02/25 07:19:01;;;;;;;11.10;10.40;;;;;;;;;;4996886;28;20122;-58
2023/02/25 07:21:28;;;;;;;11.20;10.50;;;;;;;;;;4992897;28;20341;-57
2023/02/25 07:23:53;;;;;;;11.45;10.55;;;;;;;;;;4995257;28;20072;-58
2023/02/25 07:26:19;;;;;;;11.23;10.55;;;;;;;;;;4991967;28;20062;-57
2023/02/25 07:28:47;;;;;;;12.07;11.27;;;;;;;;;;4995350;28;20356;-58
2023/02/25 07:31:15;;;;;;;11.25;10.55;;;;;;;;;;4996348;28;20034;-58
2023/02/25 07:33:41;;;;;;;12.55;11.75;;;;;;;;;;4996564;28;20041;-58
2023/02/25 07:36:08;;;;;;;11.70;10.80;;;;;;;;;;4994194;28;20052;-57
2023/02/25 07:38:33;;;;;;;11.68;10.98;;;;;;;;;;4997120;28;20685;-56
2023/02/25 07:41:10;;;;;;;10.80;10.10;;;;;;;;;;4994187;28;20038;-57
2023/02/25 07:43:36;;;;;;;10.32;9.73;;;;;;;;;;4994423;28;20636;-57
2023/02/25 07:46:02;;;;;;;10.40;9.80;;;;;;;;;;4994848;28;20034;-57
2023/02/25 07:48:28;;;;;;;11.68;10.98;;;;;;;;;;4992764;28;20728;-57
2023/02/25 07:50:54;;;;;;;11.43;10.70;;;;;;;;;;4994567;28;20042;-57
2023/02/25 07:53:21;;;;;;;12.10;11.30;;;;;;;;;;4993343;28;20672;-57
2023/02/25 07:55:47;;;;;;;10.98;10.32;;;;;;;;;;4992473;28;20507;-57
2023/02/25 07:58:13;;;;;;;13.30;12.18;;;;;;;;;;4991526;28;20038;-52
2023/02/25 08:00:39;;;;;;;11.68;10.98;;;;;;;;;;4991055;28;20057;-56
2023/02/25 08:03:06;;;;;;;12.90;12.10;;;;;;;;;;4992607;28;20041;-56
2023/02/25 08:05:35;;;;;;;12.05;11.25;;;;;;;;;;4985774;28;20184;-56
2023/02/25 08:08:01;;;;;;;11.48;10.73;;;;;;;;;;4992345;28;20052;-57
2023/02/25 08:10:26;;;;;;;12.02;11.10;;;;;;;;;;4991320;28;20034;-58
2023/02/25 08:12:51;;;;;;;12.43;11.57;;;;;;;;;;4993654;28;20469;-57
2023/02/25 08:15:17;;;;;;;11.82;11.13;;;;;;;;;;4992449;28;20788;-55
2023/02/25 08:17:42;;;;;;;13.30;12.50;;;;;;;;;;4992653;28;20046;-55
2023/02/25 08:20:08;;;;;;;12.68;11.95;;;;;;;;;;4992674;28;20095;-57
2023/02/25 08:22:34;;;;;;;13.15;12.35;;;;;;;;;;4992167;28;20036;-56
2023/02/25 08:24:59;;;;;;;13.07;12.27;;;;;;;;;;4993486;28;20033;-56
2023/02/25 08:27:25;;;;;;;12.63;11.93;;;;;;;;;;4992664;28;20123;-56
2023/02/25 08:29:51;;;;;;;12.50;11.80;;;;;;;;;;4991346;28;20073;-57
2023/02/25 08:32:16;;;;;;;13.50;12.68;;;;;;;;;;4990244;28;20135;-56
2023/02/25 08:34:42;;;;;;;12.18;11.38;;;;;;;;;;4993136;28;20090;-57
2023/02/25 08:37:10;;;;;;;11.77;11.07;;;;;;;;;;4995274;28;20033;-56
2023/02/25 08:39:36;;;;;;;12.07;11.38;;;;;;;;;;4989501;28;20461;-56
2023/02/25 08:42:02;;;;;;;10.65;10.00;;;;;;;;;;4994235;28;20041;-58
2023/02/25 08:44:27;;;;;;;10.88;10.18;;;;;;;;;;4995141;28;20030;-58
2023/02/25 08:46:52;;;;;;;10.30;9.70;;;;;;;;;;4994138;28;20034;-56
2023/02/25 08:49:18;;;;;;;11.48;10.73;;;;;;;;;;4997258;28;20177;-57
2023/02/25 08:51:43;;;;;;;12.25;11.45;;;;;;;;;;4994383;28;20030;-57
2023/02/25 08:54:12;;;;;;;11.35;10.55;;;;;;;;;;4993277;28;20097;-58
2023/02/25 08:56:43;;;;;;;11.40;10.70;;;;;;;;;;4990710;28;20045;-58
2023/02/25 08:59:10;;;;;;;11.05;10.35;;;;;;;;;;4993997;28;20045;-57
2023/02/25 09:01:45;;;;;;;10.85;10.15;;;;;;;;;;4990539;28;20540;-58
2023/02/25 09:04:17;;;;;;;10.43;9.73;;;;;;;;;;4993718;28;20042;-55
2023/02/25 09:06:42;;;;;;;10.88;10.18;;;;;;;;;;4993886;28;20508;-55
2023/02/25 09:09:10;;;;;;;10.98;10.25;;;;;;;;;;4998423;28;20034;-58
2023/02/25 09:11:35;;;;;;;10.85;10.05;;;;;;;;;;4997389;28;20476;-58
2023/02/25 09:14:01;;;;;;;10.27;9.68;;;;;;;;;;4997744;28;20100;-58
2023/02/25 09:16:28;;;;;;;10.55;9.85;;;;;;;;;;4996512;28;20443;-57
2023/02/25 09:18:53;;;;;;;11.23;10.07;;;;;;;;;;4995944;28;20108;-58
2023/02/25 09:21:20;;;;;;;10.10;9.50;;;;;;;;;;4996825;28;20132;-57
2023/02/25 09:23:46;;;;;;;9.73;9.13;;;;;;;;;;4996564;28;20045;-57
2023/02/25 09:26:13;;;;;;;11.15;10.35;;;;;;;;;;4997713;28;20042;-57
2023/02/25 09:28:38;;;;;;;9.77;9.18;;;;;;;;;;4997258;28;20088;-58
2023/02/25 09:31:04;;;;;;;11.35;10.55;;;;;;;;;;4998608;28;20065;-58
2023/02/25 09:33:31;;;;;;;10.77;9.95;;;;;;;;;;4997993;28;20042;-57
2023/02/25 09:36:11;;;;;;;10.70;10.00;;;;;;;;;;4997321;28;20045;-57
2023/02/25 09:38:38;;;;;;;10.48;9.88;;;;;;;;;;4998417;28;20546;-56
2023/02/25 09:41:20;;;;;;;10.57;9.80;;;;;;;;;;4994725;28;20137;-56
2023/02/25 09:43:47;;;;;;;10.68;9.98;;;;;;;;;;4994548;28;20042;-58
2023/02/25 09:46:17;;;;;;;10.30;9.45;;;;;;;;;;4996634;28;20048;-56
2023/02/25 09:49:11;;;;;;;9.77;9.10;;;;;;;;;;4996944;28;20046;-56
2023/02/25 09:51:42;;;;;;;10.65;9.95;;;;;;;;;;4998646;28;20077;-57
2023/02/25 09:54:21;;;;;;;10.75;10.02;;;;;;;;;;4993872;28;20053;-58
2023/02/25 09:56:46;;;;;;;10.65;10.00;;;;;;;;;;4995748;28;20038;-59
2023/02/25 09:59:17;;;;;;;10.75;10.05;;;;;;;;;;4995703;28;20489;-57
2023/02/25 10:01:46;;;;;;;;;;;;;;;;;;4996415;28;20038;-57
2023/02/25 10:04:21;;;;;;;10.13;9.52;;;;;;;;;;4994495;28;19937;-58
2023/02/25 10:06:49;;;;;;;9.93;9.32;;;;;;;;;;4991996;28;20460;-58
2023/02/25 10:09:38;;;;;;;10.88;10.20;;;;;;;;;;4997100;28;20613;-59
2023/02/25 10:12:29;;;;;;;11.57;10.77;;;;;;;;;;4997490;28;20679;-58
2023/02/25 10:15:21;;;;;;;10.85;10.15;;;;;;;;;;4998195;28;20053;-58
2023/02/25 10:18:05;;;;;;;12.07;11.07;;;;;;;;;;4992911;28;20030;-58
2023/02/25 10:20:39;;;;;;;11.30;10.60;;;;;;;;;;4996549;28;20053;-59
2023/02/25 10:23:39;;;;;;;9.70;9.10;;;;;;;;;;4989099;28;20038;-58
2023/02/25 10:26:16;;;;;;;9.73;9.13;;;;;;;;;;4995535;28;20508;-58
2023/02/25 10:28:44;;;;;;;11.23;10.50;;;;;;;;;;5013520;28;20062;-58
2023/02/25 10:31:20;;;;;;;11.38;10.55;;;;;;;;;;4997577;28;20073;-58
2023/02/25 10:33:49;;;;;;;10.73;9.93;;;;;;;;;;4994003;28;20120;-58
2023/02/25 10:36:26;;;;;;;11.60;10.80;;;;;;;;;;4993628;28;20531;-58
2023/02/25 10:38:52;;;;;;;11.55;10.82;;;;;;;;;;4996496;28;20044;-57
2023/02/25 10:41:25;;;;;;;20.13;10.02;;;;;;;;;;4999241;28;20038;-58
2023/02/25 10:43:51;;;;;;;9.90;9.30;;;;;;;;;;4996024;28;20140;-59
2023/02/25 10:46:40;;;;;;;11.63;10.32;;;;;;;;;;4996818;28;20112;-58
2023/02/25 10:49:24;;;;;;;10.82;10.13;;;;;;;;;;4995259;28;20198;-58
2023/02/25 10:52:03;;;;;;;12.30;11.40;;;;;;;;;;4995090;28;20042;-57
2023/02/25 10:54:45;;;;;;;9.60;9.00;;;;;;;;;;4993961;28;20042;-57
2023/02/25 10:57:16;;;;;;;10.65;10.02;;;;;;;;;;4997100;28;20064;-56
2023/02/25 10:59:44;;;;;;;10.75;10.10;;;;;;;;;;4995165;28;20045;-58
2023/02/25 11:02:25;;;;;;;9.95;9.35;;;;;;;;;;4993865;28;20026;-57
2023/02/25 11:04:52;;;;;;;11.52;10.73;;;;;;;;;;4996586;28;20050;-57
2023/02/25 11:07:29;;;;;;;9.98;9.38;;;;;;;;;;4994755;28;20476;-57
2023/02/25 11:10:18;;;;;;;10.02;9.43;;;;;;;;;;4998328;28;20103;-54
2023/02/25 11:12:52;;;;;;;13.10;11.65;;;;;;;;;;4994156;28;20029;-56
2023/02/25 11:15:26;;;;;;;9.98;9.38;;;;;;;;;;4993709;28;20034;-55
2023/02/25 11:17:54;;;;;;;11.10;10.40;;;;;;;;;;4994569;28;20108;-55
2023/02/25 11:20:25;;;;;;;11.18;10.45;;;;;;;;;;4997500;28;20041;-56
2023/02/25 11:22:51;;;;;;;;;;;;;;;;;;4995536;28;20141;-56
2023/02/25 11:25:19;;;;;;;9.75;9.15;;;;;;;;;;4994974;28;20374;-57
2023/02/25 11:27:57;;;;;;;10.13;9.52;;;;;;;;;;4995164;28;20746;-57
2023/02/25 11:30:31;;;;;;;10.52;9.82;;;;;;;;;;4994477;28;20054;-56
2023/02/25 11:32:58;;;;;;;11.48;10.45;;;;;;;;;;4996685;28;20122;-57
2023/02/25 11:35:29;;;;;;;11.15;10.45;;;;;;;;;;4994477;28;20496;-58
2023/02/25 11:37:57;;;;;;;10.50;9.90;;;;;;;;;;4994461;28;20121;-57
2023/02/25 11:40:40;;;;;;;10.60;10.00;;;;;;;;;;4997431;28;20077;-58
2023/02/25 11:43:05;;;;;;;10.30;9.60;;;;;;;;;;4993665;28;20034;-56
2023/02/25 11:45:53;;;;;;;10.30;9.70;;;;;;;;;;4992595;28;20538;-59
2023/02/25 11:48:23;;;;;;;9.57;8.95;;;;;;;;;;4980240;28;20049;-58
2023/02/25 11:51:03;;;;;;;10.40;9.80;;;;;;;;;;4991112;28;20125;-60
2023/02/25 11:53:53;;;;;;;9.30;8.70;;;;;;;;;;4992662;28;20538;-57
2023/02/25 11:56:28;;;;;;;10.65;9.95;;;;;;;;;;4992236;28;20049;-58
2023/02/25 11:59:37;;;;;;;9.98;9.38;;;;;;;;;;4992400;28;20117;-56
2023/02/25 12:02:08;;;;;;;10.20;9.60;;;;;;;;;;4976764;28;20146;-58
2023/02/25 12:05:02;;;;;;;12.48;9.93;;;;;;;;;;4990476;28;20052;-57
2023/02/25 12:07:45;;;;;;;10.68;9.93;;;;;;;;;;4994791;28;20046;-58
2023/02/25 12:10:44;;;;;;;10.82;10.18;;;;;;;;;;4994998;28;20041;-58
2023/02/25 12:13:26;;;;;;;10.15;9.55;;;;;;;;;;4994152;28;20073;-58
2023/02/25 12:16:19;;;;;;;11.60;10.90;;;;;;;;;;4991984;28;20069;-58
2023/02/25 12:19:10;;;;;;;9.93;9.32;;;;;;;;;;4995947;28;20518;-58
2023/02/25 12:21:36;;;;;;;;;;;;;;;;;;4993591;28;20089;-58
2023/02/25 12:24:36;;;;;;;9.77;9.18;;;;;;;;;;4995490;28;19963;-58
2023/02/25 12:27:22;;;;;;;10.48;9.88;;;;;;;;;;4990292;28;20045;-59
2023/02/25 12:30:07;;;;;;;9.50;8.90;;;;;;;;;;4992300;28;20054;-59
2023/02/25 12:32:56;;;;;;;9.45;8.85;;;;;;;;;;4992815;28;20037;-59
2023/02/25 12:35:55;;;;;;;10.32;9.63;;;;;;;;;;4991983;28;20785;-58
2023/02/25 12:38:36;;;;;;;11.18;10.48;;;;;;;;;;4993664;28;20048;-59
2023/02/25 12:41:07;;;;;;;10.15;9.55;;;;;;;;;;4994361;28;20029;-59
2023/02/25 12:43:39;;;;;;;10.55;9.85;;;;;;;;;;4992423;28;20038;-59
2023/02/25 12:46:25;;;;;;;10.45;9.57;;;;;;;;;;4991160;28;20364;-57
2023/02/25 12:49:12;;;;;;;10.50;9.90;;;;;;;;;;4990691;28;20030;-60
2023/02/25 12:51:53;;;;;;;9.80;9.20;;;;;;;;;;4989614;28;20148;-58
2023/02/25 12:54:37;;;;;;;9.85;9.25;;;;;;;;;;4996506;28;20049;-59
2023/02/25 12:57:41;;;;;;;11.25;10.55;;;;;;;;;;4993004;28;20119;-59
2023/02/25 13:00:21;;;;;;;10.02;9.43;;;;;;;;;;4993577;28;20026;-58
2023/02/25 13:03:14;;;;;;;10.68;9.98;;;;;;;;;;4993309;28;20037;-59
2023/02/25 13:06:19;;;;;;;10.30;9.70;;;;;;;;;;4994057;28;20622;-59
2023/02/25 13:09:19;;;;;;;9.93;9.25;;;;;;;;;;4992498;28;20041;-59
2023/02/25 13:12:03;;;;;;;9.88;9.27;;;;;;;;;;4994262;28;20057;-59
2023/02/25 13:14:54;;;;;;;11.43;10.73;;;;;;;;;;4990415;28;20038;-59
2023/02/25 13:17:36;;;;;;;9.70;9.10;;;;;;;;;;4991071;28;20030;-60
2023/02/25 13:20:30;;;;;;;10.00;9.40;;;;;;;;;;4991643;28;20049;-58
2023/02/25 13:23:39;;;;;;;10.27;9.65;;;;;;;;;;4994082;28;20464;-59
2023/02/25 13:26:47;;;;;;;11.43;10.68;;;;;;;;;;4999662;28;20038;-58
2023/02/25 13:29:37;;;;;;;11.80;11.10;;;;;;;;;;4993056;28;20038;-59
2023/02/25 13:32:31;;;;;;;10.80;10.10;;;;;;;;;;4992969;28;20062;-59
2023/02/25 13:35:08;;;;;;;10.77;10.07;;;;;;;;;;4989983;28;20034;-59
2023/02/25 13:37:56;;;;;;;10.73;10.02;;;;;;;;;;4991483;28;20723;-59
2023/02/25 13:40:33;;;;;;;10.45;9.85;;;;;;;;;;4993683;28;20042;-59
2023/02/25 13:43:21;;;;;;;10.45;9.85;;;;;;;;;;4991776;28;20034;-59
2023/02/25 13:46:12;;;;;;;10.85;10.15;;;;;;;;;;4990507;28;20088;-58
2023/02/25 13:48:54;;;;;;;10.52;9.93;;;;;;;;;;4992663;28;20400;-58
2023/02/25 13:51:36;;;;;;;11.30;10.50;;;;;;;;;;4989723;28;20356;-59
2023/02/25 13:54:23;;;;;;;11.32;10.63;;;;;;;;;;4995805;28;20041;-57
2023/02/25 13:57:16;;;;;;;10.50;9.90;;;;;;;;;;4992273;28;20038;-57
2023/02/25 14:00:11;;;;;;;10.88;10.23;;;;;;;;;;5003455;28;20822;-58
2023/02/25 14:03:15;;;;;;;10.15;9.55;;;;;;;;;;4991951;28;20042;-58
2023/02/25 14:05:57;;;;;;;9.80;9.20;;;;;;;;;;4996773;28;20037;-58
2023/02/25 14:08:47;;;;;;;10.35;9.75;;;;;;;;;;4993214;28;20045;-57
2023/02/25 14:11:40;;;;;;;11.10;10.40;;;;;;;;;;4993908;28;20083;-58
2023/02/25 14:14:08;;;;;;;10.43;9.82;;;;;;;;;;4993980;28;20065;-57
2023/02/25 14:16:53;;;;;;;9.95;9.35;;;;;;;;;;4994051;28;20543;-57
2023/02/25 14:19:30;;;;;;;10.13;9.52;;;;;;;;;;4995016;28;20057;-58
2023/02/25 14:22:20;;;;;;;10.82;10.18;;;;;;;;;;4990495;28;20077;-57
2023/02/25 14:25:07;;;;;;;10.63;9.93;;;;;;;;;;4994842;28;20119;-58
2023/02/25 14:27:41;;;;;;;10.77;10.10;;;;;;;;;;4996270;28;20038;-58
2023/02/25 14:30:24;;;;;;;10.98;10.30;;;;;;;;;;4995458;28;20338;-57
2023/02/25 14:33:02;;;;;;;10.88;10.18;;;;;;;;;;4994970;28;20235;-58
2023/02/25 14:36:21;;;;;;;11.60;10.90;;;;;;;;;;4994758;28;20611;-58
2023/02/25 14:39:18;;;;;;;10.98;10.27;;;;;;;;;;4977048;28;20082;-57
2023/02/25 14:42:21;;;;;;;10.38;9.73;;;;;;;;;;4995591;28;20042;-55
2023/02/25 14:45:09;;;;;;;9.40;8.80;;;;;;;;;;4995044;28;20591;-55
2023/02/25 14:47:56;;;;;;;9.93;9.32;;;;;;;;;;4993231;28;20431;-55
2023/02/25 14:50:31;;;;;;;9.98;9.38;;;;;;;;;;5001173;28;20088;-56
2023/02/25 14:53:35;;;;;;;9.50;8.90;;;;;;;;;;4996536;28;20428;-56
2023/02/25 14:56:25;;;;;;;9.32;8.73;;;;;;;;;;4995854;28;20030;-56